Time;durP1;ratioP1;P1;durP2;ratioP2;P2;SDS_P1;SDS_P2;PMS_P1;PMS_P2;Temp;Humidity;BMP_temperature;BMP_pressure;BME280_temperature;BME280_humidity;BME280_pressure;Samples;Min_cycle;Max_cycle;Signal;HPM_P1;HPM_P2
2023/10/09 00:02:10;;;;;;;10.07;6.68;;;15.10;99.90;;;;;;5128678;27;20395;-43
2023/10/09 00:04:37;;;;;;;12.18;7.18;;;15.20;99.90;;;;;;5063528;28;20483;-43
2023/10/09 00:07:04;;;;;;;8.52;6.65;;;15.20;99.90;;;;;;5128831;27;20022;-43
2023/10/09 00:09:32;;;;;;;10.38;7.15;;;15.20;99.90;;;;;;5063481;28;20021;-43
2023/10/09 00:12:00;;;;;;;9.88;7.47;;;15.20;99.90;;;;;;5126994;27;20362;-44
2023/10/09 00:14:30;;;;;;;11.15;7.50;;;15.20;99.90;;;;;;5063412;27;20498;-43
2023/10/09 00:17:17;;;;;;;10.55;7.35;;;15.20;99.90;;;;;;5116823;27;20117;-42
2023/10/09 00:19:49;;;;;;;11.48;7.25;;;15.20;99.90;;;;;;5043483;27;20447;-44
2023/10/09 00:24:51;;;;;;;9.82;6.70;;;15.20;99.90;;;;;;5044149;28;19912;-42
2023/10/09 00:27:21;;;;;;;8.80;6.85;;;15.20;99.90;;;;;;5110137;27;20018;-42
2023/10/09 00:29:48;;;;;;;8.85;6.85;;;15.20;99.90;;;;;;5072211;27;20065;-43
2023/10/09 00:32:18;;;;;;;11.25;7.50;;;15.20;99.90;;;;;;5106997;27;20055;-43
2023/10/09 00:34:44;;;;;;;11.30;7.18;;;15.20;99.90;;;;;;5081076;27;20084;-43
2023/10/09 00:37:16;;;;;;;9.85;7.20;;;15.20;99.90;;;;;;5096337;27;20061;-43
2023/10/09 00:39:43;;;;;;;9.38;7.38;;;15.10;99.90;;;;;;5091377;27;20028;-43
2023/10/09 00:42:12;;;;;;;11.48;7.40;;;15.10;99.90;;;;;;5069845;27;20039;-43
2023/10/09 00:44:38;;;;;;;9.15;7.55;;;15.10;99.90;;;;;;5062822;28;20033;-43
2023/10/09 00:47:20;;;;;;;11.70;7.63;;;15.10;99.90;;;;;;5103668;27;20027;-44
2023/10/09 00:50:11;;;;;;;11.35;7.78;;;15.10;99.90;;;;;;5128413;27;20109;-42
2023/10/09 00:55:38;;;;;;;15.90;8.77;;;15.10;99.90;;;;;;5146453;27;20836;-42
2023/10/09 00:58:10;;;;;;;12.27;8.23;;;15.10;99.90;;;;;;5125564;27;20025;-43
2023/10/09 01:03:21;;;;;;;9.73;7.70;;;15.10;99.90;;;;;;5127310;27;20031;-44
2023/10/09 01:11:18;;;;;;;16.58;9.57;;;15.10;99.90;;;;;;5156635;27;20117;-42
2023/10/09 01:16:22;;;;;;;13.88;8.73;;;15.20;99.90;;;;;;5154937;27;20508;-43
2023/10/09 01:18:52;;;;;;;11.85;7.80;;;15.20;99.90;;;;;;5124608;27;20106;-42
2023/10/09 01:21:24;;;;;;;11.70;8.63;;;15.20;99.90;;;;;;5149388;27;20045;-43
2023/10/09 01:26:34;;;;;;;10.57;8.50;;;15.20;99.90;;;;;;5146943;27;20564;-43
2023/10/09 01:29:00;;;;;;;11.80;8.43;;;15.20;99.90;;;;;;5129778;27;20080;-44
2023/10/09 01:31:33;;;;;;;12.68;9.45;;;15.20;99.90;;;;;;5139457;27;20075;-43
2023/10/09 01:33:59;;;;;;;12.10;9.25;;;15.20;99.90;;;;;;5138010;27;20072;-44
2023/10/09 01:36:32;;;;;;;13.85;9.55;;;15.20;99.90;;;;;;5131885;27;20054;-43
2023/10/09 01:39:10;;;;;;;12.57;9.55;;;15.30;99.90;;;;;;5146101;27;20030;-42
2023/10/09 01:41:45;;;;;;;11.73;9.23;;;15.30;99.90;;;;;;5131574;27;20098;-44
2023/10/09 01:44:12;;;;;;;12.48;9.25;;;15.30;99.90;;;;;;5088641;27;20015;-43
2023/10/09 01:46:41;;;;;;;11.93;9.43;;;15.30;99.90;;;;;;5103859;27;20029;-43
2023/10/09 01:49:17;;;;;;;14.55;9.80;;;15.30;99.90;;;;;;5073986;27;20186;-43
2023/10/09 01:51:42;;;;;;;13.00;9.13;;;15.30;99.90;;;;;;5108107;27;20866;-43
2023/10/09 01:54:09;;;;;;;13.00;9.32;;;15.40;99.90;;;;;;5068753;27;20099;-43
2023/10/09 01:56:39;;;;;;;15.55;9.13;;;15.40;99.90;;;;;;5121524;27;20081;-44
2023/10/09 01:59:05;;;;;;;12.10;8.88;;;15.40;99.90;;;;;;5068495;27;20020;-43
2023/10/09 02:01:40;;;;;;;12.48;8.93;;;15.50;99.90;;;;;;5121050;27;20047;-43
2023/10/09 02:04:13;;;;;;;12.65;9.55;;;15.50;99.90;;;;;;5068817;27;20032;-42
2023/10/09 02:06:42;;;;;;;16.90;10.43;;;15.50;99.90;;;;;;5120589;27;20055;-43
2023/10/09 02:09:07;;;;;;;14.90;10.05;;;15.50;99.90;;;;;;5063619;27;20017;-43
2023/10/09 02:11:36;;;;;;;13.70;10.02;;;15.50;99.90;;;;;;5125383;27;20027;-42
2023/10/09 02:14:06;;;;;;;10.73;9.02;;;15.60;99.90;;;;;;5060424;27;20033;-43
2023/10/09 02:16:41;;;;;;;12.15;9.02;;;15.60;99.90;;;;;;5128215;27;20022;-44
2023/10/09 02:19:30;;;;;;;13.88;10.40;;;15.60;99.90;;;;;;5061412;28;20035;-43
2023/10/09 02:21:56;;;;;;;11.30;8.45;;;15.60;99.90;;;;;;5103238;27;20030;-43
2023/10/09 02:24:42;;;;;;;12.95;9.30;;;15.60;99.90;;;;;;5166649;27;20033;-43
2023/10/09 02:27:08;;;;;;;15.00;9.10;;;15.60;99.90;;;;;;5104415;27;20583;-43
2023/10/09 02:29:38;;;;;;;12.23;9.70;;;15.60;99.90;;;;;;5167038;27;20057;-43
2023/10/09 02:32:14;;;;;;;13.52;9.75;;;15.60;99.90;;;;;;5099937;27;20053;-43
2023/10/09 02:34:40;;;;;;;13.95;9.27;;;15.60;99.90;;;;;;5166387;27;20046;-43
2023/10/09 02:37:06;;;;;;;14.77;9.82;;;15.60;99.90;;;;;;5098837;27;20024;-43
2023/10/09 02:39:36;;;;;;;12.20;8.70;;;15.60;99.90;;;;;;5166967;27;20047;-42
2023/10/09 02:44:40;;;;;;;13.23;9.65;;;15.50;99.90;;;;;;5166619;27;20792;-46
2023/10/09 02:47:12;;;;;;;13.60;9.63;;;15.50;99.90;;;;;;5106536;27;20020;-44
2023/10/09 02:49:40;;;;;;;12.98;9.60;;;15.50;99.90;;;;;;5163620;27;20029;-43
2023/10/09 02:52:07;;;;;;;14.48;10.25;;;15.50;99.90;;;;;;5113629;27;20024;-44
2023/10/09 02:54:41;;;;;;;13.57;9.93;;;15.50;99.90;;;;;;5153631;27;20704;-43
2023/10/09 02:57:15;;;;;;;15.48;10.10;;;15.50;99.90;;;;;;5120072;27;20074;-42
2023/10/09 02:59:41;;;;;;;11.93;9.48;;;15.50;99.90;;;;;;5152242;27;20553;-44
2023/10/09 03:02:07;;;;;;;11.73;9.88;;;15.40;99.90;;;;;;5126652;27;20057;-42
2023/10/09 03:04:33;;;;;;;14.15;9.85;;;15.50;99.90;;;;;;5139018;27;20030;-43
2023/10/09 03:06:59;;;;;;;13.73;9.90;;;15.50;99.90;;;;;;5140915;27;20472;-44
2023/10/09 03:09:27;;;;;;;14.23;10.20;;;15.50;99.90;;;;;;5124798;27;20022;-44
2023/10/09 03:11:54;;;;;;;12.40;10.13;;;15.50;99.90;;;;;;5154330;27;20082;-44
2023/10/09 03:14:21;;;;;;;12.13;9.63;;;15.50;99.90;;;;;;5113650;27;20026;-43
2023/10/09 03:16:50;;;;;;;14.80;10.32;;;15.50;99.90;;;;;;5158350;27;20542;-43
2023/10/09 03:19:16;;;;;;;14.10;9.82;;;15.60;99.90;;;;;;5106162;27;20037;-45
2023/10/09 03:21:46;;;;;;;11.25;9.05;;;15.60;99.90;;;;;;5159303;27;20045;-43
2023/10/09 03:24:12;;;;;;;13.30;9.40;;;15.60;99.90;;;;;;5106633;27;20054;-43
2023/10/09 03:26:37;;;;;;;13.15;9.85;;;15.60;99.90;;;;;;5165700;27;20046;-44
2023/10/09 03:29:06;;;;;;;12.00;9.45;;;15.60;99.90;;;;;;5099968;27;20489;-43
2023/10/09 03:31:43;;;;;;;12.13;8.98;;;15.60;99.90;;;;;;5166027;27;20423;-42
2023/10/09 03:34:10;;;;;;;12.18;9.90;;;15.60;99.90;;;;;;5099079;27;20058;-42
2023/10/09 03:36:39;;;;;;;16.52;9.60;;;15.70;99.90;;;;;;5166228;27;20826;-42
2023/10/09 03:39:20;;;;;;;12.35;9.30;;;15.60;99.90;;;;;;5098441;27;20025;-43
2023/10/09 03:41:47;;;;;;;12.40;9.23;;;15.60;99.90;;;;;;5166021;27;20058;-43
2023/10/09 03:44:14;;;;;;;11.02;8.68;;;15.60;99.90;;;;;;5135057;27;20029;-43
2023/10/09 03:46:44;;;;;;;12.05;8.93;;;15.70;99.90;;;;;;5061065;28;20167;-44
2023/10/09 03:49:11;;;;;;;12.30;9.23;;;15.70;99.90;;;;;;5123253;27;20038;-42
2023/10/09 03:51:37;;;;;;;12.20;9.15;;;15.70;99.90;;;;;;5067419;27;20046;-43
2023/10/09 03:54:09;;;;;;;12.25;8.93;;;15.70;99.90;;;;;;5110394;27;20014;-43
2023/10/09 03:56:37;;;;;;;11.15;9.05;;;15.70;99.90;;;;;;5077974;27;20028;-43
2023/10/09 03:59:04;;;;;;;12.50;9.05;;;15.70;99.90;;;;;;5102123;27;20026;-43
2023/10/09 04:01:37;;;;;;;11.35;8.65;;;15.70;99.90;;;;;;5088891;27;20072;-43
2023/10/09 04:04:06;;;;;;;11.32;9.30;;;15.70;99.90;;;;;;5094815;27;20014;-43
2023/10/09 04:06:32;;;;;;;11.52;9.00;;;15.70;99.90;;;;;;5094764;27;20218;-42
2023/10/09 04:11:46;;;;;;;10.23;8.65;;;15.80;99.90;;;;;;5094226;27;20047;-44
2023/10/09 04:14:33;;;;;;;12.75;8.70;;;15.80;99.90;;;;;;5086260;27;20046;-43
2023/10/09 04:20:37;;;;;;;13.10;9.90;;;15.70;99.90;;;;;;5103376;27;20094;-43
2023/10/09 04:22:50;;;;;;;11.85;8.50;;;15.80;99.90;;;;;;5072145;27;20555;-43
2023/10/09 04:25:25;;;;;;;9.85;8.13;;;15.80;99.90;;;;;;5117312;27;20018;-44
2023/10/09 04:30:43;;;;;;;12.73;9.82;;;15.90;99.90;;;;;;5129871;27;20075;-42
2023/10/09 04:41:27;;;;;;;10.10;7.50;;;16.10;99.90;;;;;;5128422;27;20052;-44
2023/10/09 04:44:18;;;;;;;11.52;7.80;;;16.20;99.90;;;;;;5140856;27;20044;-43
2023/10/09 04:46:44;;;;;;;10.77;7.78;;;16.20;99.90;;;;;;5102307;27;20030;-43
2023/10/09 04:49:27;;;;;;;8.75;7.85;;;16.20;99.90;;;;;;5168101;27;20018;-42
2023/10/09 04:52:09;;;;;;;8.85;7.05;;;16.20;99.90;;;;;;5102731;27;20031;-42
2023/10/09 04:55:02;;;;;;;12.68;8.27;;;16.30;99.90;;;;;;5167476;27;20036;-43
2023/10/09 04:57:26;;;;;;;10.98;8.48;;;16.30;99.90;;;;;;5109473;27;20475;-42
2023/10/09 04:59:52;;;;;;;11.90;8.35;;;16.30;99.90;;;;;;5164251;27;20163;-43
2023/10/09 05:02:23;;;;;;;10.27;8.13;;;16.30;99.90;;;;;;5105529;27;20087;-43
2023/10/09 05:05:01;;;;;;;9.77;7.18;;;16.40;99.90;;;;;;5169245;27;20022;-43
2023/10/09 05:10:25;;;;;;;11.73;8.25;;;16.40;99.90;;;;;;5164089;27;20729;-43
2023/10/09 05:12:57;;;;;;;9.98;7.72;;;16.40;99.90;;;;;;5119473;27;20501;-43
2023/10/09 05:15:29;;;;;;;10.95;8.13;;;16.40;99.90;;;;;;5066430;27;20032;-43
2023/10/09 05:18:09;;;;;;;;;;;16.40;99.90;;;;;;5118721;27;20021;-43
2023/10/09 05:20:58;;;;;;;10.82;7.78;;;16.40;99.90;;;;;;5067389;27;19919;-43
2023/10/09 05:23:24;;;;;;;9.70;7.20;;;16.40;99.90;;;;;;5119797;27;20099;-44
2023/10/09 05:25:58;;;;;;;8.88;7.28;;;16.50;99.90;;;;;;5070610;27;20103;-43
2023/10/09 05:28:48;;;;;;;8.73;7.25;;;16.40;99.90;;;;;;5121117;27;20060;-43
2023/10/09 05:31:45;;;;;;;8.88;7.25;;;16.50;99.90;;;;;;5076078;27;20035;-43
2023/10/09 05:34:01;;;;;;;11.23;8.02;;;16.50;99.90;;;;;;5105156;27;20077;-42
2023/10/09 05:38:59;;;;;;;12.65;9.00;;;16.50;99.90;;;;;;5108204;27;20049;-43
2023/10/09 05:41:47;;;;;;;8.63;7.50;;;16.60;99.90;;;;;;5159839;27;20037;-43
2023/10/09 05:47:22;;;;;;;10.05;8.40;;;16.60;99.90;;;;;;5143808;27;20490;-43
2023/10/09 05:52:32;;;;;;;9.65;8.10;;;16.60;99.90;;;;;;5086845;27;20106;-43
2023/10/09 06:03:25;;;;;;;12.55;9.15;;;16.60;99.90;;;;;;5115946;27;20035;-43
2023/10/09 06:11:49;;;;;;;8.82;7.50;;;16.70;99.90;;;;;;5151611;27;20045;-42
2023/10/09 06:17:22;;;;;;;11.32;8.38;;;16.70;99.90;;;;;;5041287;28;20418;-44
2023/10/09 06:19:48;;;;;;;11.07;7.57;;;16.70;99.90;;;;;;5098394;27;20028;-43
2023/10/09 06:25:08;;;;;;;9.40;6.60;;;16.70;99.90;;;;;;5099779;27;20033;-43
2023/10/09 06:32:49;;;;;;;7.30;6.00;;;16.80;99.90;;;;;;5166037;27;20056;-43
2023/10/09 06:35:18;;;;;;;8.52;6.45;;;16.90;99.90;;;;;;5098026;27;20042;-43
2023/10/09 06:45:55;;;;;;;10.98;6.80;;;16.90;99.90;;;;;;5119641;27;20467;-44
2023/10/09 06:51:41;;;;;;;7.40;6.10;;;16.90;99.90;;;;;;5115953;27;20391;-43
2023/10/09 06:54:06;;;;;;;9.77;6.60;;;16.90;99.90;;;;;;5064388;27;20030;-43
2023/10/09 06:59:24;;;;;;;6.82;5.70;;;16.90;99.90;;;;;;5067969;27;20041;-44
2023/10/09 07:02:25;;;;;;;7.25;6.15;;;16.90;99.90;;;;;;5098345;27;20035;-43
2023/10/09 07:07:13;;;;;;;6.75;5.80;;;16.90;99.90;;;;;;5112548;27;20059;-43
2023/10/09 07:10:28;;;;;;;9.70;6.35;;;16.90;99.90;;;;;;5157756;27;20043;-44
2023/10/09 07:12:32;;;;;;;9.15;6.25;;;16.90;99.90;;;;;;5115437;27;20037;-43
2023/10/09 07:15:39;;;;;;;8.15;6.22;;;17.00;99.90;;;;;;5154242;27;20027;-43
2023/10/09 07:17:47;;;;;;;7.40;6.20;;;17.00;99.90;;;;;;5128136;27;20022;-43
2023/10/09 07:20:36;;;;;;;8.80;5.85;;;17.00;99.90;;;;;;5151433;27;20071;-43
2023/10/09 07:23:14;;;;;;;7.47;6.07;;;17.00;99.90;;;;;;5131370;27;20540;-43
2023/10/09 07:25:58;;;;;;;7.55;6.50;;;17.00;99.90;;;;;;5144136;27;20028;-43
2023/10/09 07:28:43;;;;;;;7.30;6.30;;;17.10;99.90;;;;;;5143818;27;20071;-43
2023/10/09 07:31:23;;;;;;;8.65;6.72;;;17.10;99.90;;;;;;5128585;27;20455;-43
2023/10/09 07:33:59;;;;;;;7.95;6.13;;;17.20;99.90;;;;;;5154577;27;20656;-43
2023/10/09 07:36:34;;;;;;;7.75;6.63;;;17.20;99.90;;;;;;5124640;27;20035;-44
2023/10/09 07:39:13;;;;;;;9.05;7.00;;;17.20;99.90;;;;;;5154576;27;20033;-43
2023/10/09 07:41:44;;;;;;;8.07;6.50;;;17.20;99.90;;;;;;5122452;27;20044;-43
2023/10/09 07:44:34;;;;;;;9.95;6.90;;;17.20;99.90;;;;;;5074136;27;20128;-44
2023/10/09 07:47:17;;;;;;;7.85;6.05;;;17.20;99.90;;;;;;5115239;27;20042;-43
2023/10/09 07:49:48;;;;;;;11.32;7.75;;;17.30;99.90;;;;;;5044284;27;20025;-43
2023/10/09 07:52:14;;;;;;;10.90;7.95;;;17.30;99.90;;;;;;5114678;27;20026;-43
2023/10/09 07:54:49;;;;;;;8.85;7.13;;;17.30;99.90;;;;;;5073034;27;20512;-43
2023/10/09 07:57:16;;;;;;;9.52;7.05;;;17.30;99.90;;;;;;5112695;27;20477;-43
2023/10/09 07:59:54;;;;;;;8.85;7.00;;;17.30;99.90;;;;;;5143951;27;20030;-42
2023/10/09 08:02:31;;;;;;;8.50;6.47;;;17.40;99.90;;;;;;5123003;27;20036;-43
2023/10/09 08:07:55;;;;;;;7.97;6.13;;;17.40;99.90;;;;;;5112433;27;20498;-43
2023/10/09 08:18:09;;;;;;;10.55;7.30;;;17.60;99.90;;;;;;5127911;27;20768;-43
2023/10/09 08:20:51;;;;;;;9.70;6.85;;;17.70;99.90;;;;;;5162146;27;20118;-43
2023/10/09 08:23:28;;;;;;;8.68;6.70;;;17.80;99.90;;;;;;5110203;27;20508;-43
2023/10/09 08:26:13;;;;;;;9.55;7.60;;;17.90;99.90;;;;;;5042433;28;20040;-43
2023/10/09 08:28:43;;;;;;;9.88;7.63;;;17.90;99.90;;;;;;5125900;27;20018;-43
2023/10/09 08:34:23;;;;;;;10.52;7.18;;;18.00;99.90;;;;;;5080422;27;20048;-44
2023/10/09 08:36:52;;;;;;;8.70;7.32;;;18.00;99.90;;;;;;5062990;27;20028;-43
2023/10/09 08:39:27;;;;;;;9.40;7.85;;;18.00;99.90;;;;;;5127828;27;20022;-44
2023/10/09 08:41:59;;;;;;;10.75;8.40;;;18.10;99.90;;;;;;5062751;28;20047;-44
2023/10/09 08:44:29;;;;;;;9.95;7.72;;;18.10;99.90;;;;;;5128441;27;20021;-45
2023/10/09 08:46:57;;;;;;;9.15;7.80;;;18.10;99.90;;;;;;5062033;28;20028;-44
2023/10/09 08:49:23;;;;;;;9.65;7.43;;;18.20;99.90;;;;;;5128024;27;20065;-43
2023/10/09 08:51:49;;;;;;;9.00;7.20;;;18.30;99.90;;;;;;5063123;27;20028;-43
2023/10/09 08:54:15;;;;;;;9.85;7.78;;;18.30;99.90;;;;;;5113616;27;20025;-43
2023/10/09 08:56:49;;;;;;;11.15;8.38;;;18.40;99.90;;;;;;5074771;27;20037;-43
2023/10/09 08:59:19;;;;;;;12.95;9.48;;;18.40;99.90;;;;;;5108792;27;20696;-43
2023/10/09 09:01:52;;;;;;;15.38;9.32;;;18.40;99.90;;;;;;5077768;27;20562;-43
2023/10/09 09:04:40;;;;;;;15.65;9.77;;;18.40;99.90;;;;;;5103282;27;20041;-43
2023/10/09 09:07:23;;;;;;;12.23;8.45;;;18.50;99.90;;;;;;5069836;27;20436;-44
2023/10/09 09:10:17;;;;;;;12.00;9.13;;;18.50;99.90;;;;;;5118439;27;20469;-43
2023/10/09 09:12:44;;;;;;;13.50;9.35;;;18.50;99.90;;;;;;5042830;28;20043;-44
2023/10/09 09:15:27;;;;;;;8.95;7.38;;;18.60;99.90;;;;;;5120943;27;20030;-44
2023/10/09 09:18:06;;;;;;;11.25;8.68;;;18.60;99.90;;;;;;5048148;28;20062;-43
2023/10/09 09:20:36;;;;;;;11.25;7.68;;;18.70;99.90;;;;;;5065828;27;20025;-44
2023/10/09 09:23:05;;;;;;;9.27;7.85;;;18.70;99.90;;;;;;5054026;27;20036;-44
2023/10/09 09:26:03;;;;;;;10.77;7.88;;;18.80;99.90;;;;;;5121482;27;20022;-42
2023/10/09 09:28:38;;;;;;;9.52;7.20;;;18.90;99.90;;;;;;5048896;28;20120;-44
2023/10/09 09:31:13;;;;;;;11.52;7.38;;;18.90;99.90;;;;;;5126781;27;20054;-43
2023/10/09 09:33:44;;;;;;;9.27;6.93;;;18.90;99.90;;;;;;5061213;28;20036;-43
2023/10/09 09:36:12;;;;;;;7.68;6.70;;;19.00;99.90;;;;;;5098603;27;20040;-42
2023/10/09 09:38:47;;;;;;;11.68;8.30;;;19.10;99.90;;;;;;5062280;27;20056;-43
2023/10/09 09:41:24;;;;;;;9.18;7.63;;;19.10;99.90;;;;;;5128226;27;20479;-42
2023/10/09 09:44:06;;;;;;;10.98;6.90;;;19.20;99.90;;;;;;5118419;27;20022;-43
2023/10/09 09:46:42;;;;;;;8.77;6.40;;;19.30;99.90;;;;;;5100936;27;20032;-43
2023/10/09 09:49:16;;;;;;;9.88;6.82;;;19.30;99.90;;;;;;5166525;27;20485;-47
2023/10/09 09:51:46;;;;;;;8.68;7.25;;;19.40;99.90;;;;;;5100324;27;20021;-43
2023/10/09 09:54:15;;;;;;;9.98;7.32;;;19.50;99.90;;;;;;5167428;27;20026;-43
2023/10/09 09:56:50;;;;;;;11.13;6.93;;;19.50;99.90;;;;;;5100799;27;20028;-42
2023/10/09 09:59:21;;;;;;;9.18;7.10;;;19.60;99.90;;;;;;5167357;27;20029;-43
2023/10/09 10:02:00;;;;;;;10.40;7.20;;;19.60;99.90;;;;;;5100813;27;20043;-44
2023/10/09 10:04:30;;;;;;;9.40;6.93;;;19.60;99.90;;;;;;5159307;27;20034;-43
2023/10/09 10:07:08;;;;;;;9.25;6.95;;;19.70;99.90;;;;;;5126566;27;20389;-43
2023/10/09 10:09:41;;;;;;;8.05;5.95;;;19.70;99.90;;;;;;5042051;28;20029;-42
2023/10/09 10:12:11;;;;;;;9.50;5.78;;;19.80;99.90;;;;;;5122239;27;20049;-43
2023/10/09 10:14:52;;;;;;;11.05;6.70;;;19.80;99.90;;;;;;5041527;28;20021;-42
2023/10/09 10:17:22;;;;;;;9.98;5.25;;;19.80;99.90;;;;;;5123890;27;20520;-44
2023/10/09 10:22:47;;;;;;;6.18;5.10;;;20.00;99.90;;;;;;5079506;27;20047;-42
2023/10/09 10:25:42;;;;;;;;;;;20.00;99.90;;;;;;5049343;28;20065;-43
2023/10/09 10:28:42;;;;;;;6.65;4.47;;;20.10;99.90;;;;;;5079485;27;19911;-43
2023/10/09 10:31:13;;;;;;;5.47;4.43;;;20.20;99.90;;;;;;5159311;27;20030;-43
2023/10/09 10:33:58;;;;;;;9.32;6.03;;;20.20;99.90;;;;;;5106668;27;20026;-43
2023/10/09 10:36:26;;;;;;;7.97;5.55;;;20.20;99.90;;;;;;5158960;27;20063;-43
2023/10/09 10:39:11;;;;;;;9.88;6.25;;;20.20;99.90;;;;;;5106305;27;20049;-43
2023/10/09 10:41:50;;;;;;;8.63;6.38;;;20.20;99.90;;;;;;5159224;27;20040;-43
2023/10/09 10:44:38;;;;;;;8.68;5.72;;;20.20;99.90;;;;;;5132356;27;20109;-44
2023/10/09 10:47:21;;;;;;;9.25;6.13;;;20.20;99.90;;;;;;5154018;27;20026;-44
2023/10/09 10:49:52;;;;;;;6.55;4.72;;;20.20;99.90;;;;;;5123857;27;20022;-43
2023/10/09 10:52:43;;;;;;;8.07;5.30;;;20.30;99.90;;;;;;5152265;27;20042;-44
2023/10/09 10:58:10;;;;;;;6.80;5.28;;;20.40;99.90;;;;;;5131417;27;20085;-42
2023/10/09 11:03:35;;;;;;;10.35;5.53;;;20.40;99.90;;;;;;5120130;27;20075;-43
2023/10/09 11:06:18;;;;;;;9.60;5.22;;;20.50;99.90;;;;;;5154313;27;20030;-43
2023/10/09 11:08:54;;;;;;;;;;;20.50;99.90;;;;;;5112417;27;20045;-42
2023/10/09 11:11:20;;;;;;;7.93;5.35;;;20.60;99.90;;;;;;5160678;27;20475;-44
2023/10/09 11:13:58;;;;;;;7.18;5.13;;;20.60;99.90;;;;;;5118487;27;20028;-43
2023/10/09 11:16:47;;;;;;;9.80;4.88;;;20.60;99.90;;;;;;5155266;27;20446;-43
2023/10/09 11:19:52;;;;;;;8.38;4.93;;;20.70;99.90;;;;;;5106107;27;20043;-42
2023/10/09 11:24:40;;;;;;;7.93;5.43;;;20.80;99.90;;;;;;5123889;27;20033;-44
2023/10/09 11:27:06;;;;;;;8.10;5.55;;;20.80;99.90;;;;;;5059979;28;20114;-42
2023/10/09 11:32:18;;;;;;;8.65;5.70;;;20.80;99.90;;;;;;5040391;28;20419;-43
2023/10/09 11:34:54;;;;;;;8.50;5.40;;;20.90;99.90;;;;;;5114636;27;20047;-43
2023/10/09 11:40:00;;;;;;;8.35;5.18;;;20.90;99.90;;;;;;5115481;27;20045;-43
2023/10/09 11:42:49;;;;;;;9.73;5.25;;;21.00;99.90;;;;;;5063786;27;20037;-44
2023/10/09 11:45:29;;;;;;;7.38;4.85;;;21.00;99.90;;;;;;5123061;27;20027;-43
2023/10/09 11:48:00;;;;;;;7.78;4.40;;;21.10;99.90;;;;;;5041053;28;20032;-43
2023/10/09 11:50:51;;;;;;;7.18;4.43;;;21.20;99.90;;;;;;5122768;27;20022;-44
2023/10/09 11:53:19;;;;;;;6.60;4.53;;;21.20;99.90;;;;;;5060524;28;20111;-43
2023/10/09 11:55:48;;;;;;;6.32;3.88;;;21.30;99.90;;;;;;5126256;27;20022;-44
2023/10/09 11:58:24;;;;;;;9.05;4.80;;;21.40;99.90;;;;;;5059248;28;20476;-44
2023/10/09 12:01:03;;;;;;;6.00;3.45;;;21.40;99.90;;;;;;5126910;27;20086;-43
2023/10/09 12:03:30;;;;;;;4.40;3.25;;;21.50;99.90;;;;;;5059271;28;20029;-44
2023/10/09 12:06:11;;;;;;;6.65;4.30;;;21.60;99.90;;;;;;5126081;27;20023;-44
2023/10/09 12:08:40;;;;;;;8.32;5.30;;;21.70;99.90;;;;;;5041278;28;20029;-43
2023/10/09 12:11:09;;;;;;;9.40;4.97;;;21.70;99.90;;;;;;5125012;27;20494;-43
2023/10/09 12:13:37;;;;;;;8.80;5.30;;;21.70;99.90;;;;;;5043363;27;20021;-44
2023/10/09 12:16:08;;;;;;;7.60;4.97;;;21.70;99.90;;;;;;5108700;27;20388;-43
2023/10/09 12:18:34;;;;;;;5.90;4.30;;;21.60;99.90;;;;;;5162886;27;20019;-43
2023/10/09 12:21:04;;;;;;;5.30;3.42;;;21.70;99.90;;;;;;5121792;27;20028;-43
2023/10/09 12:23:35;;;;;;;5.43;3.90;;;21.70;99.90;;;;;;5152783;27;20042;-44
2023/10/09 12:26:04;;;;;;;6.50;3.90;;;21.60;99.90;;;;;;5128378;27;20025;-44
2023/10/09 12:28:34;;;;;;;8.05;4.90;;;21.70;99.90;;;;;;5144912;27;20022;-43
2023/10/09 12:31:03;;;;;;;8.75;4.18;;;21.80;99.90;;;;;;5136813;27;20506;-43
2023/10/09 12:33:29;;;;;;;8.45;4.82;;;21.80;99.90;;;;;;5136069;27;20123;-42
2023/10/09 12:36:01;;;;;;;7.22;5.00;;;21.70;99.90;;;;;;5149067;27;20026;-43
2023/10/09 12:38:46;;;;;;;8.75;4.82;;;21.70;99.90;;;;;;5128500;27;20030;-42
2023/10/09 12:41:27;;;;;;;7.13;4.13;;;21.70;99.90;;;;;;5142815;27;20072;-44
2023/10/09 12:43:54;;;;;;;7.32;4.38;;;21.60;99.90;;;;;;5090853;27;20025;-42
2023/10/09 12:46:23;;;;;;;6.85;3.50;;;21.60;99.90;;;;;;5085300;27;20022;-43
2023/10/09 12:48:49;;;;;;;5.88;3.85;;;21.50;99.90;;;;;;5103867;27;20043;-43
2023/10/09 12:51:16;;;;;;;7.25;3.88;;;21.50;99.90;;;;;;5075165;27;20050;-44
2023/10/09 12:53:43;;;;;;;6.53;4.05;;;21.50;99.90;;;;;;5114679;27;20135;-44
2023/10/09 12:56:09;;;;;;;7.88;4.22;;;21.40;99.90;;;;;;5069646;27;20022;-44
2023/10/09 12:58:37;;;;;;;6.45;4.10;;;21.40;99.90;;;;;;5121665;27;20042;-43
2023/10/09 13:01:09;;;;;;;6.22;3.90;;;21.40;99.90;;;;;;5069305;27;20047;-44
2023/10/09 13:03:38;;;;;;;5.50;3.67;;;21.40;99.90;;;;;;5121529;27;20080;-43
2023/10/09 13:06:10;;;;;;;7.70;3.72;;;21.30;99.90;;;;;;5062954;27;20036;-43
2023/10/09 13:08:40;;;;;;;6.55;4.20;;;21.40;99.90;;;;;;5122986;27;20025;-45
2023/10/09 13:11:10;;;;;;;8.27;3.78;;;21.40;99.90;;;;;;5062433;28;20025;-43
2023/10/09 13:13:41;;;;;;;5.60;3.50;;;21.40;99.90;;;;;;5127525;27;20017;-42
2023/10/09 13:16:23;;;;;;;6.82;3.88;;;21.40;99.90;;;;;;5042265;28;20502;-43
2023/10/09 13:19:05;;;;;;;4.93;3.60;;;21.40;99.90;;;;;;5128659;27;20100;-43
2023/10/09 13:21:34;;;;;;;8.30;3.67;;;21.40;99.90;;;;;;5061802;27;20127;-43
2023/10/09 13:24:01;;;;;;;4.32;3.22;;;21.40;99.90;;;;;;5101119;27;20018;-43
2023/10/09 13:26:32;;;;;;;5.00;3.05;;;21.40;99.90;;;;;;5167916;27;20033;-43
2023/10/09 13:28:59;;;;;;;4.57;3.50;;;21.30;99.90;;;;;;5099437;27;20068;-44
2023/10/09 13:31:26;;;;;;;3.60;2.97;;;21.40;99.90;;;;;;5168070;27;20022;-43
2023/10/09 13:33:55;;;;;;;5.05;3.33;;;21.40;99.90;;;;;;5101827;27;20045;-43
2023/10/09 13:36:31;;;;;;;4.82;3.35;;;21.40;99.90;;;;;;5041615;28;20112;-43
2023/10/09 13:39:02;;;;;;;5.32;3.40;;;21.40;99.90;;;;;;5120513;27;20014;-43
2023/10/09 13:41:33;;;;;;;5.07;3.28;;;21.30;99.90;;;;;;5042134;28;20148;-43
2023/10/09 13:44:03;;;;;;;7.95;4.28;;;21.40;99.90;;;;;;5067520;27;20024;-44
2023/10/09 13:46:31;;;;;;;6.18;4.47;;;21.30;99.90;;;;;;5062955;27;20168;-44
2023/10/09 13:48:57;;;;;;;8.05;3.65;;;21.30;99.90;;;;;;5097692;27;20353;-43
2023/10/09 13:51:29;;;;;;;5.50;4.15;;;21.30;99.90;;;;;;5148037;27;20067;-43
2023/10/09 13:53:54;;;;;;;5.65;3.17;;;21.30;99.90;;;;;;5129817;27;20179;-43
2023/10/09 13:56:22;;;;;;;7.05;3.70;;;21.20;99.90;;;;;;5137814;27;20019;-44
2023/10/09 13:59:01;;;;;;;4.32;2.88;;;21.20;99.90;;;;;;5140362;27;20020;-42
2023/10/09 14:01:39;;;;;;;5.10;3.05;;;21.30;99.90;;;;;;5136701;27;20131;-43
2023/10/09 14:04:08;;;;;;;4.82;2.63;;;21.20;99.90;;;;;;5136059;27;20044;-43
2023/10/09 14:06:34;;;;;;;5.40;3.40;;;21.30;99.90;;;;;;5133501;27;20381;-43
2023/10/09 14:09:05;;;;;;;5.03;3.40;;;21.20;99.90;;;;;;5148954;27;20018;-43
2023/10/09 14:11:31;;;;;;;7.13;3.80;;;21.30;99.90;;;;;;5123434;27;20023;-43
2023/10/09 14:13:59;;;;;;;6.55;4.20;;;21.20;99.90;;;;;;5157916;27;20018;-43
2023/10/09 14:16:29;;;;;;;6.80;4.35;;;21.20;99.90;;;;;;5112830;27;20019;-43
2023/10/09 14:18:59;;;;;;;5.07;3.33;;;21.20;99.90;;;;;;5158894;27;20032;-44
2023/10/09 14:21:28;;;;;;;5.18;3.20;;;21.20;99.90;;;;;;5107388;27;20031;-44
2023/10/09 14:23:56;;;;;;;6.97;3.47;;;21.30;99.90;;;;;;5159691;27;20030;-43
2023/10/09 14:26:25;;;;;;;5.70;3.53;;;21.30;99.90;;;;;;5107268;27;20042;-43
2023/10/09 14:28:52;;;;;;;8.50;3.70;;;21.40;99.90;;;;;;5165805;27;20385;-43
2023/10/09 14:31:20;;;;;;;6.15;3.25;;;21.40;99.90;;;;;;5101252;27;20018;-43
2023/10/09 14:33:52;;;;;;;5.68;3.30;;;21.40;99.90;;;;;;5166261;27;20519;-43
2023/10/09 14:36:18;;;;;;;6.00;2.75;;;21.40;99.90;;;;;;5100068;27;20063;-43
2023/10/09 14:38:46;;;;;;;5.03;3.28;;;21.30;99.90;;;;;;5166634;27;20380;-43
2023/10/09 14:41:12;;;;;;;7.93;3.30;;;21.30;99.90;;;;;;5100157;27;20039;-43
2023/10/09 14:43:39;;;;;;;4.65;3.35;;;21.30;99.90;;;;;;5135017;27;20059;-42
2023/10/09 14:46:10;;;;;;;4.60;3.08;;;21.30;99.90;;;;;;5116952;27;20026;-43
2023/10/09 14:48:39;;;;;;;6.40;3.83;;;21.30;99.90;;;;;;5066520;27;20029;-43
2023/10/09 14:51:12;;;;;;;6.20;3.65;;;21.20;99.90;;;;;;5109989;27;20026;-44
2023/10/09 14:53:40;;;;;;;6.95;3.85;;;21.30;99.90;;;;;;5072017;27;20036;-44
2023/10/09 14:56:28;;;;;;;4.93;3.67;;;21.20;99.90;;;;;;5101830;27;20326;-43
2023/10/09 14:58:58;;;;;;;6.57;3.53;;;21.20;99.90;;;;;;5067887;27;20025;-43
2023/10/09 15:01:25;;;;;;;6.47;3.35;;;21.10;99.90;;;;;;5107188;27;20525;-44
2023/10/09 15:03:54;;;;;;;5.35;3.67;;;21.20;99.90;;;;;;5078774;27;20468;-43
2023/10/09 15:06:20;;;;;;;5.45;3.20;;;21.10;99.90;;;;;;5096780;27;20083;-44
2023/10/09 15:08:49;;;;;;;5.82;3.03;;;21.20;99.90;;;;;;5089882;27;20495;-43
2023/10/09 15:11:17;;;;;;;5.50;3.53;;;21.20;99.90;;;;;;5086253;27;20026;-43
2023/10/09 15:13:43;;;;;;;6.30;3.80;;;21.20;99.90;;;;;;5099092;27;20025;-44